createdAt,value
2019-06-08T00:02:22.977Z,1.53
2019-06-08T00:04:52.556Z,1.57
2019-06-08T00:07:23.123Z,1.03
2019-06-08T00:09:52.719Z,1.50
2019-06-08T00:12:23.273Z,1.50
2019-06-08T00:14:52.934Z,1.43
2019-06-08T00:17:34.351Z,1.10
2019-06-08T00:20:13.527Z,1.13
2019-06-08T00:22:43.092Z,0.90
2019-06-08T00:25:13.781Z,1.30
2019-06-08T00:27:43.342Z,1.43
2019-06-08T00:30:13.479Z,1.30
2019-06-08T00:32:42.904Z,1.87
2019-06-08T00:35:13.019Z,0.90
2019-06-08T00:37:42.465Z,1.20
2019-06-08T00:40:12.026Z,1.37
2019-06-08T00:42:41.474Z,1.57
2019-06-08T00:45:12.073Z,1.53
2019-06-08T00:47:47.990Z,0.87
2019-06-08T00:50:13.320Z,1.13
2019-06-08T00:52:42.756Z,1.20
2019-06-08T00:55:12.838Z,1.20
2019-06-08T00:57:42.343Z,1.17
2019-06-08T01:00:12.183Z,1.37
2019-06-08T01:02:41.619Z,1.17
2019-06-08T01:05:11.327Z,1.50
2019-06-08T01:07:40.777Z,1.30
2019-06-08T01:10:10.806Z,1.50
2019-06-08T01:12:40.411Z,1.03
2019-06-08T01:15:11.009Z,1.37
2019-06-08T01:17:40.516Z,1.03
2019-06-08T01:20:10.351Z,1.20
2019-06-08T01:22:39.787Z,1.47
2019-06-08T01:25:09.445Z,1.00
2019-06-08T01:27:38.849Z,0.97
2019-06-08T01:30:11.397Z,0.90
2019-06-08T01:32:40.889Z,1.50
2019-06-08T01:35:10.527Z,1.60
2019-06-08T01:37:39.969Z,1.17
2019-06-08T01:40:10.106Z,1.03
2019-06-08T01:42:39.857Z,1.63
2019-06-08T01:45:10.344Z,1.33
2019-06-08T01:47:39.755Z,1.57
2019-06-08T01:50:09.316Z,1.40
2019-06-08T01:52:38.760Z,1.40
2019-06-08T01:55:08.332Z,1.70
2019-06-08T01:57:37.760Z,1.50
2019-06-08T02:00:29.509Z,2.53
2019-06-08T02:02:39.865Z,1.90
2019-06-08T02:05:09.732Z,1.57
2019-06-08T02:07:39.219Z,2.13
2019-06-08T02:10:09.863Z,1.70
2019-06-08T02:12:39.347Z,1.30
2019-06-08T02:15:09.279Z,1.57
2019-06-08T02:17:38.846Z,1.43
2019-06-08T02:20:09.090Z,1.60
2019-06-08T02:22:39.404Z,1.40
2019-06-08T02:25:10.521Z,1.30
2019-06-08T02:27:40.253Z,1.33
2019-06-08T02:30:14.416Z,1.63
2019-06-08T02:32:43.841Z,1.70
2019-06-08T02:35:13.983Z,1.20
2019-06-08T02:37:43.429Z,1.63
2019-06-08T02:40:13.543Z,1.70
2019-06-08T02:42:43.071Z,2.07
2019-06-08T02:45:14.393Z,1.77
2019-06-08T02:47:43.818Z,1.80
2019-06-08T02:50:14.365Z,1.50
2019-06-08T02:52:45.557Z,2.07
2019-06-08T02:55:16.485Z,1.60
2019-06-08T02:57:50.851Z,1.47
2019-06-08T03:00:20.682Z,1.70
2019-06-08T03:02:52.332Z,1.97
2019-06-08T03:05:22.147Z,1.47
2019-06-08T03:07:53.915Z,1.60
2019-06-08T03:10:23.408Z,1.87
2019-06-08T03:12:55.329Z,2.00
2019-06-08T03:15:34.287Z,1.70
2019-06-08T03:18:02.765Z,1.90
2019-06-08T03:20:33.468Z,1.60
2019-06-08T03:23:03.501Z,1.47
2019-06-08T03:25:42.020Z,1.63
2019-06-08T03:28:04.476Z,1.57
2019-06-08T03:30:37.728Z,2.80
2019-06-08T03:33:05.194Z,1.97
2019-06-08T03:35:38.372Z,1.83
2019-06-08T03:38:06.113Z,1.60
2019-06-08T03:40:35.922Z,1.90
2019-06-08T03:43:05.553Z,1.73
2019-06-08T03:45:36.393Z,2.00
2019-06-08T03:48:06.005Z,1.70
2019-06-08T03:50:37.054Z,1.77
2019-06-08T03:53:06.606Z,1.87
2019-06-08T03:55:37.797Z,2.20
2019-06-08T03:58:07.286Z,2.03
2019-06-08T04:00:38.146Z,2.00
2019-06-08T04:03:07.772Z,1.97
2019-06-08T04:05:39.793Z,1.80
2019-06-08T04:08:08.693Z,1.77
2019-06-08T04:10:39.737Z,1.73
2019-06-08T04:13:11.658Z,2.00
2019-06-08T04:15:42.119Z,2.00
2019-06-08T04:18:11.680Z,1.60
2019-06-08T04:20:43.587Z,2.40
2019-06-08T04:23:12.517Z,1.73
2019-06-08T04:25:42.545Z,1.83
2019-06-08T04:28:12.452Z,2.03
2019-06-08T04:30:42.985Z,1.80
2019-06-08T04:33:13.055Z,2.37
2019-06-08T04:35:44.330Z,1.67
2019-06-08T04:38:13.705Z,1.67
2019-06-08T04:40:43.489Z,1.93
2019-06-08T04:43:13.085Z,1.67
2019-06-08T04:45:43.531Z,1.93
2019-06-08T04:48:13.990Z,2.30
2019-06-08T04:50:45.294Z,1.90
2019-06-08T04:53:14.562Z,1.80
2019-06-08T04:55:45.497Z,2.10
2019-06-08T04:58:16.346Z,2.33
2019-06-08T05:00:48.073Z,1.93
2019-06-08T05:03:17.279Z,2.43
2019-06-08T05:05:47.648Z,1.73
2019-06-08T05:08:17.861Z,1.80
2019-06-08T05:10:47.556Z,1.73
2019-06-08T05:13:17.204Z,1.67
2019-06-08T05:15:47.470Z,2.00
2019-06-08T05:18:16.980Z,2.00
2019-06-08T05:20:48.885Z,1.90
2019-06-08T05:23:17.610Z,2.50
2019-06-08T05:25:47.258Z,1.90
2019-06-08T05:28:17.070Z,1.97
2019-06-08T05:30:47.383Z,1.97
2019-06-08T05:33:17.161Z,2.30
2019-06-08T05:35:47.575Z,2.20
2019-06-08T05:38:17.219Z,2.30
2019-06-08T05:40:47.683Z,2.30
2019-06-08T05:43:17.218Z,2.00
2019-06-08T05:45:48.348Z,1.93
2019-06-08T05:48:19.663Z,2.20
2019-06-08T05:51:00.194Z,2.10
2019-06-08T05:53:20.745Z,2.37
2019-06-08T05:55:50.287Z,2.13
2019-06-08T05:58:20.107Z,2.20
2019-06-08T06:00:50.659Z,1.90
2019-06-08T06:03:20.756Z,2.27
2019-06-08T06:05:50.797Z,1.57
2019-06-08T06:08:20.537Z,2.10
2019-06-08T06:10:51.324Z,2.20
2019-06-08T06:13:20.933Z,1.97
2019-06-08T06:15:51.761Z,2.00
2019-06-08T06:18:21.452Z,1.97
2019-06-08T06:20:51.609Z,2.00
2019-06-08T06:23:21.305Z,1.90
2019-06-08T06:25:51.776Z,1.70
2019-06-08T06:28:21.364Z,2.07
2019-06-08T06:30:52.240Z,2.40
2019-06-08T06:33:21.807Z,1.97
2019-06-08T06:35:52.151Z,2.07
2019-06-08T06:38:22.074Z,2.27
2019-06-08T06:40:52.197Z,1.87
2019-06-08T06:43:22.015Z,2.00
2019-06-08T06:45:52.174Z,1.97
2019-06-08T06:48:23.779Z,1.70
2019-06-08T06:50:53.545Z,2.27
2019-06-08T06:53:22.965Z,1.90
2019-06-08T06:55:53.375Z,2.03
2019-06-08T06:58:23.069Z,1.80
2019-06-08T07:00:53.715Z,2.20
2019-06-08T07:03:23.637Z,1.70
2019-06-08T07:05:54.173Z,2.17
2019-06-08T07:08:23.894Z,2.20
2019-06-08T07:10:55.061Z,2.03
2019-06-08T07:13:24.911Z,2.10
2019-06-08T07:15:58.009Z,2.57
2019-06-08T07:18:26.411Z,2.03
2019-06-08T07:20:56.107Z,2.23
2019-06-08T07:23:35.366Z,1.87
2019-06-08T07:26:04.966Z,2.20
2019-06-08T07:28:39.526Z,2.07
2019-06-08T07:31:09.057Z,1.80
2019-06-08T07:33:38.953Z,2.37
2019-06-08T07:36:10.725Z,2.30
2019-06-08T07:38:43.666Z,2.50
2019-06-08T07:41:13.091Z,2.17
2019-06-08T07:43:42.516Z,1.60
2019-06-08T07:46:11.998Z,1.70
2019-06-08T07:48:41.576Z,2.23
2019-06-08T07:51:11.063Z,2.30
2019-06-08T07:53:40.492Z,1.80
2019-06-08T07:56:09.940Z,2.33
2019-06-08T07:58:41.642Z,1.80
2019-06-08T08:01:11.359Z,1.90
2019-06-08T08:03:41.722Z,2.27
2019-06-08T08:06:11.735Z,1.97
2019-06-08T08:08:41.846Z,2.17
2019-06-08T08:11:11.275Z,2.30
2019-06-08T08:13:40.850Z,2.10
2019-06-08T08:16:10.407Z,2.33
2019-06-08T08:18:40.145Z,1.83
2019-06-08T08:21:21.826Z,2.10
2019-06-08T08:23:40.727Z,1.97
2019-06-08T08:26:10.477Z,2.07
2019-06-08T08:28:40.228Z,2.83
2019-06-08T08:31:11.426Z,2.00
2019-06-08T08:33:40.968Z,2.03
2019-06-08T08:36:10.543Z,1.80
2019-06-08T08:38:41.063Z,1.80
2019-06-08T08:41:11.029Z,1.57
2019-06-08T08:43:40.512Z,1.53
2019-06-08T08:46:10.048Z,1.37
2019-06-08T08:48:39.645Z,1.20
2019-06-08T08:51:09.060Z,1.20
2019-06-08T08:53:38.511Z,1.17
2019-06-08T08:56:07.938Z,1.37
2019-06-08T08:58:38.083Z,1.30
2019-06-08T09:01:08.282Z,1.03
2019-06-08T09:03:39.583Z,1.27
2019-06-08T09:06:09.102Z,1.40
2019-06-08T09:08:38.682Z,1.43
2019-06-08T09:11:08.403Z,1.53
2019-06-08T09:13:37.884Z,1.97
2019-06-08T09:16:08.053Z,1.87
2019-06-08T09:18:37.725Z,1.70
2019-06-08T09:21:08.436Z,2.03
2019-06-08T09:23:40.854Z,2.10
2019-06-08T09:26:13.091Z,2.30
2019-06-08T09:28:41.550Z,2.13
2019-06-08T09:31:12.954Z,2.30
2019-06-08T09:33:42.272Z,2.23
2019-06-08T09:36:11.783Z,2.10
2019-06-08T09:38:41.212Z,2.10
2019-06-08T09:41:10.685Z,2.20
2019-06-08T09:43:40.147Z,2.20
2019-06-08T09:46:09.741Z,1.93
2019-06-08T09:48:39.206Z,2.27
2019-06-08T09:51:09.397Z,2.20
2019-06-08T09:53:41.712Z,2.57
2019-06-08T09:56:10.731Z,2.17
2019-06-08T09:58:40.187Z,2.20
2019-06-08T10:01:12.333Z,2.00
2019-06-08T10:03:40.876Z,2.30
2019-06-08T10:06:12.487Z,2.00
2019-06-08T10:08:41.556Z,2.20
2019-06-08T10:11:11.067Z,2.00
2019-06-08T10:13:43.228Z,2.10
2019-06-08T10:16:11.789Z,2.20
2019-06-08T10:18:41.221Z,1.73
2019-06-08T10:21:10.711Z,2.00
2019-06-08T10:23:41.809Z,1.97
2019-06-08T10:26:12.142Z,2.13
2019-06-08T10:28:41.637Z,2.00
2019-06-08T10:31:11.042Z,2.40
2019-06-08T10:33:40.943Z,2.43
2019-06-08T10:36:12.942Z,1.80
2019-06-08T10:38:41.910Z,2.53
2019-06-08T10:41:17.646Z,2.47
2019-06-08T10:43:42.778Z,1.70
2019-06-08T10:46:17.401Z,1.90
2019-06-08T10:48:43.782Z,1.80
2019-06-08T10:51:13.504Z,2.03
2019-06-08T10:53:49.189Z,2.07
2019-06-08T10:56:14.457Z,2.17
2019-06-08T10:58:43.951Z,1.87
2019-06-08T11:01:13.609Z,1.90
2019-06-08T11:03:43.255Z,2.00
2019-06-08T11:06:13.424Z,2.00
2019-06-08T11:08:43.202Z,2.07
2019-06-08T11:11:13.093Z,1.70
2019-06-08T11:13:42.678Z,2.10
2019-06-08T11:16:13.442Z,2.20
2019-06-08T11:18:43.550Z,2.60
2019-06-08T11:21:13.151Z,2.30
2019-06-08T11:23:42.673Z,1.80
2019-06-08T11:26:19.598Z,1.97
2019-06-08T11:28:43.333Z,1.70
2019-06-08T11:31:16.013Z,2.03
2019-06-08T11:33:44.101Z,2.00
2019-06-08T11:36:14.947Z,2.50
2019-06-08T11:38:44.781Z,2.07
2019-06-08T11:41:14.242Z,2.07
2019-06-08T11:43:43.709Z,2.30
2019-06-08T11:46:13.144Z,2.30
2019-06-08T11:48:42.569Z,2.23
2019-06-08T11:51:13.108Z,2.80
2019-06-08T11:53:42.896Z,2.63
2019-06-08T11:56:13.580Z,2.33
2019-06-08T11:58:44.037Z,2.10
2019-06-08T12:01:15.287Z,1.90
2019-06-08T12:03:45.013Z,2.70
2019-06-08T12:06:14.678Z,3.80
2019-06-08T12:08:44.352Z,3.30
2019-06-08T12:11:18.171Z,2.43
2019-06-08T12:13:46.909Z,2.80
2019-06-08T12:16:21.922Z,2.87
2019-06-08T12:18:49.264Z,2.70
2019-06-08T12:21:18.706Z,2.43
2019-06-08T12:23:48.160Z,2.60
2019-06-08T12:26:17.592Z,2.77
2019-06-08T12:28:48.678Z,2.93
2019-06-08T12:31:22.345Z,2.40
2019-06-08T12:33:49.524Z,1.50
2019-06-08T12:36:20.536Z,1.20
2019-06-08T12:38:50.350Z,1.50
2019-06-08T12:41:19.766Z,1.57
2019-06-08T12:43:49.527Z,2.00
2019-06-08T12:46:20.986Z,1.93
2019-06-08T12:48:50.109Z,1.90
2019-06-08T12:51:21.446Z,1.83
2019-06-08T12:53:50.716Z,1.50
2019-06-08T12:56:23.936Z,1.70
2019-06-08T12:58:51.684Z,1.43
2019-06-08T13:01:21.124Z,2.20
2019-06-08T13:03:50.555Z,2.33
2019-06-08T13:06:20.122Z,2.07
2019-06-08T13:08:49.637Z,2.13
2019-06-08T13:11:21.194Z,2.00
2019-06-08T13:13:50.344Z,1.80
2019-06-08T13:16:24.291Z,1.90
2019-06-08T13:18:51.014Z,2.00
2019-06-08T13:21:31.917Z,1.60
2019-06-08T13:23:51.641Z,2.20
2019-06-08T13:26:27.489Z,2.00
2019-06-08T13:28:52.182Z,1.77
2019-06-08T13:31:24.500Z,1.47
2019-06-08T13:33:53.086Z,1.70
2019-06-08T13:36:26.413Z,1.70
2019-06-08T13:38:53.670Z,1.60
2019-06-08T13:41:26.326Z,1.63
2019-06-08T13:43:54.283Z,1.60
2019-06-08T13:46:23.754Z,1.80
2019-06-08T13:48:53.212Z,1.80
2019-06-08T13:51:24.121Z,1.93
2019-06-08T13:53:53.709Z,1.53
2019-06-08T13:56:24.080Z,2.60
2019-06-08T13:58:53.551Z,2.10
2019-06-08T14:01:23.791Z,2.10
2019-06-08T14:03:54.185Z,2.00
2019-06-08T14:06:24.887Z,2.00
2019-06-08T14:08:55.038Z,2.20
2019-06-08T14:11:25.279Z,1.90
2019-06-08T14:13:55.430Z,1.73
2019-06-08T14:16:27.198Z,1.70
2019-06-08T14:18:56.364Z,1.83
2019-06-08T14:21:32.010Z,1.77
2019-06-08T14:24:00.178Z,1.73
2019-06-08T14:26:29.719Z,1.90
2019-06-08T14:29:01.637Z,1.77
2019-06-08T14:31:32.013Z,1.50
2019-06-08T14:34:01.555Z,1.77
2019-06-08T14:36:31.067Z,1.70
2019-06-08T14:39:02.367Z,1.80
2019-06-08T14:41:31.725Z,1.90
2019-06-08T14:44:01.193Z,1.87
2019-06-08T14:46:30.916Z,1.50
2019-06-08T14:49:00.330Z,1.73
2019-06-08T14:51:48.943Z,2.03
2019-06-08T14:54:24.372Z,1.87
2019-06-08T14:56:51.269Z,2.33
2019-06-08T14:59:21.973Z,1.40
2019-06-08T15:01:51.952Z,1.53
2019-06-08T15:04:23.861Z,2.00
2019-06-08T15:06:52.719Z,1.70
2019-06-08T15:09:23.347Z,1.60
2019-06-08T15:11:52.983Z,1.93
2019-06-08T15:14:23.541Z,1.40
2019-06-08T15:16:53.203Z,1.60
2019-06-08T15:19:22.633Z,1.80
2019-06-08T15:21:52.066Z,1.87
2019-06-08T15:24:22.618Z,1.80
2019-06-08T15:26:52.156Z,2.00
2019-06-08T15:29:22.879Z,2.40
2019-06-08T15:31:52.372Z,2.03
2019-06-08T15:34:23.092Z,1.60
2019-06-08T15:36:52.895Z,1.50
2019-06-08T15:39:23.410Z,1.80
2019-06-08T15:41:52.994Z,1.83
2019-06-08T15:44:24.250Z,1.43
2019-06-08T15:46:53.850Z,1.80
2019-06-08T15:49:24.135Z,1.80
2019-06-08T15:51:53.622Z,1.67
2019-06-08T15:54:23.060Z,1.80
2019-06-08T15:56:52.492Z,2.00
2019-06-08T15:59:23.139Z,1.70
2019-06-08T16:01:55.691Z,1.93
2019-06-08T16:04:25.722Z,1.40
2019-06-08T16:06:55.294Z,1.87
2019-06-08T16:09:25.855Z,1.43
2019-06-08T16:11:55.551Z,1.70
2019-06-08T16:14:29.059Z,2.00
2019-06-08T16:16:59.039Z,1.40
2019-06-08T16:19:29.619Z,1.37
2019-06-08T16:21:59.161Z,1.47
2019-06-08T16:24:29.773Z,1.43
2019-06-08T16:26:59.342Z,1.50
2019-06-08T16:29:29.067Z,1.50
2019-06-08T16:31:58.522Z,1.20
2019-06-08T16:34:29.168Z,1.57
2019-06-08T16:37:03.716Z,1.73
2019-06-08T16:39:35.509Z,1.30
2019-06-08T16:42:04.994Z,1.30
2019-06-08T16:44:36.281Z,1.70
2019-06-08T16:47:06.050Z,1.60
2019-06-08T16:49:35.515Z,1.50
2019-06-08T16:52:09.106Z,1.57
2019-06-08T16:54:44.016Z,1.17
2019-06-08T16:57:13.571Z,1.40
2019-06-08T16:59:43.022Z,1.30
2019-06-08T17:02:16.539Z,1.30
2019-06-08T17:04:44.381Z,1.30
2019-06-08T17:07:14.039Z,1.20
2019-06-08T17:09:43.557Z,1.40
2019-06-08T17:12:13.104Z,1.80
2019-06-08T17:14:42.607Z,1.90
2019-06-08T17:17:12.210Z,2.00
2019-06-08T17:19:41.914Z,1.73
2019-06-08T17:22:11.418Z,1.37
2019-06-08T17:24:40.918Z,1.10
2019-06-08T17:27:25.766Z,1.40
2019-06-08T17:29:41.971Z,1.40
2019-06-08T17:32:13.005Z,1.30
2019-06-08T17:34:42.544Z,1.33
2019-06-08T17:37:12.079Z,1.60
2019-06-08T17:39:42.281Z,1.53
2019-06-08T17:42:12.259Z,1.30
2019-06-08T17:44:42.544Z,1.30
2019-06-08T17:47:12.190Z,1.30
2019-06-08T17:49:42.950Z,1.20
2019-06-08T17:52:12.788Z,1.50
2019-06-08T17:54:43.304Z,1.70
2019-06-08T17:57:12.841Z,1.60
2019-06-08T17:59:42.313Z,1.60
2019-06-08T18:02:15.407Z,1.57
2019-06-08T18:04:44.355Z,1.70
2019-06-08T18:07:14.034Z,1.47
2019-06-08T18:09:45.083Z,1.17
2019-06-08T18:12:14.723Z,1.50
2019-06-08T18:14:45.268Z,1.47
2019-06-08T18:17:17.471Z,1.70
2019-06-08T18:19:49.515Z,1.30
2019-06-08T18:22:18.629Z,1.93
2019-06-08T18:24:48.492Z,1.40
2019-06-08T18:27:18.316Z,1.60
2019-06-08T18:29:48.848Z,1.53
2019-06-08T18:32:18.642Z,1.60
2019-06-08T18:34:48.247Z,1.60
2019-06-08T18:37:18.415Z,1.53
2019-06-08T18:39:49.470Z,1.30
2019-06-08T18:42:20.322Z,1.60
2019-06-08T18:44:49.738Z,2.10
2019-06-08T18:47:19.180Z,1.67
2019-06-08T18:49:48.951Z,1.93
2019-06-08T18:52:18.559Z,1.80
2019-06-08T18:54:49.677Z,1.83
2019-06-08T18:57:19.368Z,1.70
2019-06-08T18:59:53.037Z,1.63
2019-06-08T19:02:20.144Z,1.50
2019-06-08T19:04:49.758Z,1.50
2019-06-08T19:07:19.379Z,1.50
2019-06-08T19:09:49.831Z,1.50
2019-06-08T19:12:19.796Z,1.40
2019-06-08T19:14:52.095Z,1.90
2019-06-08T19:17:20.667Z,1.70
2019-06-08T19:19:52.408Z,1.70
2019-06-08T19:22:21.380Z,1.33
2019-06-08T19:24:50.952Z,1.33
2019-06-08T19:27:20.425Z,1.60
2019-06-08T19:29:51.659Z,1.40
2019-06-08T19:32:21.419Z,1.80
2019-06-08T19:34:53.883Z,2.00
2019-06-08T19:37:22.181Z,2.10
2019-06-08T19:39:51.609Z,1.83
2019-06-08T19:42:33.274Z,1.87
2019-06-08T19:45:01.184Z,2.30
2019-06-08T19:47:23.386Z,1.67
2019-06-08T19:49:54.785Z,1.70
2019-06-08T19:52:24.573Z,1.60
2019-06-08T19:54:54.239Z,1.53
2019-06-08T19:57:23.847Z,1.93
2019-06-08T19:59:53.272Z,1.50
2019-06-08T20:02:22.824Z,2.03
2019-06-08T20:04:53.275Z,1.50
2019-06-08T20:07:23.161Z,1.73
2019-06-08T20:09:53.691Z,2.10
2019-06-08T20:12:23.430Z,1.83
2019-06-08T20:14:53.800Z,1.73
2019-06-08T20:17:23.364Z,1.90
2019-06-08T20:19:53.443Z,1.90
2019-06-08T20:22:23.052Z,1.83
2019-06-08T20:24:55.734Z,1.73
2019-06-08T20:27:24.610Z,1.90
2019-06-08T20:29:54.049Z,2.03
2019-06-08T20:32:23.506Z,2.00
2019-06-08T20:34:53.784Z,1.80
2019-06-08T20:37:23.353Z,2.00
2019-06-08T20:40:05.809Z,2.10
2019-06-08T20:42:23.986Z,2.17
2019-06-08T20:44:53.764Z,1.80
2019-06-08T20:47:23.175Z,1.93
2019-06-08T20:49:53.458Z,2.60
2019-06-08T20:52:23.029Z,1.97
2019-06-08T20:54:53.561Z,2.47
2019-06-08T20:57:23.183Z,2.93
2019-06-08T20:59:54.021Z,2.40
2019-06-08T21:02:23.797Z,2.07
2019-06-08T21:04:54.928Z,2.10
2019-06-08T21:07:24.485Z,2.00
2019-06-08T21:09:55.230Z,1.90
2019-06-08T21:12:25.162Z,2.00
2019-06-08T21:14:55.538Z,2.70
2019-06-08T21:17:27.382Z,2.43
2019-06-08T21:19:57.979Z,2.50
2019-06-08T21:22:27.748Z,2.00
2019-06-08T21:24:59.977Z,2.27
2019-06-08T21:27:28.719Z,1.90
2019-06-08T21:30:06.847Z,1.97
2019-06-08T21:32:29.659Z,2.30
2019-06-08T21:35:00.282Z,2.23
2019-06-08T21:37:29.906Z,1.83
2019-06-08T21:40:03.655Z,1.80
2019-06-08T21:42:30.797Z,1.73
2019-06-08T21:45:02.156Z,1.90
2019-06-08T21:47:31.720Z,2.00
2019-06-08T21:50:01.157Z,2.20
2019-06-08T21:52:31.099Z,2.00
2019-06-08T21:55:00.911Z,1.87
2019-06-08T21:57:30.724Z,2.00
2019-06-08T22:00:21.940Z,2.40
2019-06-08T22:02:31.379Z,2.27
2019-06-08T22:05:03.308Z,1.93
2019-06-08T22:07:31.975Z,2.20
2019-06-08T22:10:02.802Z,2.40
2019-06-08T22:12:32.329Z,2.93
2019-06-08T22:15:02.982Z,2.03
2019-06-08T22:17:32.606Z,2.27
2019-06-08T22:20:03.317Z,2.20
2019-06-08T22:22:33.293Z,2.17
2019-06-08T22:25:03.693Z,2.17
2019-06-08T22:27:33.238Z,2.00
2019-06-08T22:30:09.555Z,2.20
2019-06-08T22:32:34.122Z,2.40
2019-06-08T22:35:04.100Z,1.97
2019-06-08T22:37:33.508Z,2.73
2019-06-08T22:40:03.719Z,2.20
2019-06-08T22:42:33.139Z,2.27
2019-06-08T22:45:03.926Z,2.83
2019-06-08T22:47:33.416Z,2.07
2019-06-08T22:50:03.764Z,2.27
2019-06-08T22:52:33.337Z,2.33
2019-06-08T22:55:06.702Z,2.33
2019-06-08T22:57:33.899Z,1.83
2019-06-08T23:00:14.247Z,2.03
2019-06-08T23:02:38.240Z,2.37
2019-06-08T23:05:08.973Z,2.70
2019-06-08T23:07:38.869Z,2.30
2019-06-08T23:10:09.135Z,2.40
2019-06-08T23:12:39.009Z,2.57
2019-06-08T23:15:10.248Z,2.00
2019-06-08T23:17:39.829Z,2.80
2019-06-08T23:20:09.584Z,2.33
2019-06-08T23:22:39.013Z,2.60
2019-06-08T23:25:09.717Z,2.50
2019-06-08T23:27:39.361Z,2.80
2019-06-08T23:30:10.583Z,2.83
2019-06-08T23:32:40.399Z,2.83
2019-06-08T23:35:10.341Z,2.60
2019-06-08T23:37:39.776Z,3.33
2019-06-08T23:40:09.512Z,3.13
2019-06-08T23:42:38.956Z,2.77
2019-06-08T23:45:10.758Z,2.80
2019-06-08T23:47:40.327Z,3.07
2019-06-08T23:50:11.893Z,2.33
2019-06-08T23:52:41.279Z,3.20
2019-06-08T23:55:11.979Z,3.00
2019-06-08T23:57:41.911Z,2.87
